sensor_id;sensor_type;location;lat;lon;timestamp;temperature;humidity
62904;DHT22;49000;50.698;13.322;2023-11-21T00:01:35;5.70;99.90
62904;DHT22;49000;50.698;13.322;2023-11-21T00:04:00;6.30;99.90
62904;DHT22;49000;50.698;13.322;2023-11-21T00:06:27;6.30;99.90
62904;DHT22;49000;50.698;13.322;2023-11-21T00:08:52;6.30;99.90
62904;DHT22;49000;50.698;13.322;2023-11-21T00:11:18;6.00;99.90
62904;DHT22;49000;50.698;13.322;2023-11-21T00:13:43;6.40;99.90
62904;DHT22;49000;50.698;13.322;2023-11-21T00:16:09;6.00;99.90
62904;DHT22;49000;50.698;13.322;2023-11-21T00:18:34;6.50;99.90
62904;DHT22;49000;50.698;13.322;2023-11-21T00:21:01;6.40;99.90
62904;DHT22;49000;50.698;13.322;2023-11-21T00:23:26;5.90;99.90
62904;DHT22;49000;50.698;13.322;2023-11-21T00:25:52;6.10;99.90
62904;DHT22;49000;50.698;13.322;2023-11-21T00:28:17;6.20;99.90
62904;DHT22;49000;50.698;13.322;2023-11-21T00:30:43;5.90;99.90
62904;DHT22;49000;50.698;13.322;2023-11-21T00:33:08;6.30;99.90
62904;DHT22;49000;50.698;13.322;2023-11-21T00:35:34;6.30;99.90
62904;DHT22;49000;50.698;13.322;2023-11-21T00:37:59;6.40;99.90
62904;DHT22;49000;50.698;13.322;2023-11-21T00:40:25;6.40;99.90
62904;DHT22;49000;50.698;13.322;2023-11-21T00:42:50;6.30;99.90
62904;DHT22;49000;50.698;13.322;2023-11-21T00:45:16;6.20;99.90
62904;DHT22;49000;50.698;13.322;2023-11-21T00:47:41;6.50;99.90
62904;DHT22;49000;50.698;13.322;2023-11-21T00:50:08;6.20;99.90
62904;DHT22;49000;50.698;13.322;2023-11-21T00:52:33;6.30;99.90
62904;DHT22;49000;50.698;13.322;2023-11-21T00:54:59;6.50;99.90
62904;DHT22;49000;50.698;13.322;2023-11-21T00:57:26;6.40;99.90
62904;DHT22;49000;50.698;13.322;2023-11-21T00:59:51;6.50;99.90
62904;DHT22;49000;50.698;13.322;2023-11-21T01:02:17;6.30;99.90
62904;DHT22;49000;50.698;13.322;2023-11-21T01:04:42;6.00;99.90
62904;DHT22;49000;50.698;13.322;2023-11-21T01:07:09;6.30;99.90
62904;DHT22;49000;50.698;13.322;2023-11-21T01:09:34;6.40;99.90
62904;DHT22;49000;50.698;13.322;2023-11-21T01:12:00;6.40;99.90
62904;DHT22;49000;50.698;13.322;2023-11-21T01:14:26;6.40;99.90
62904;DHT22;49000;50.698;13.322;2023-11-21T01:16:54;6.50;99.90
62904;DHT22;49000;50.698;13.322;2023-11-21T01:19:20;6.60;99.90
62904;DHT22;49000;50.698;13.322;2023-11-21T01:21:45;6.60;99.90
62904;DHT22;49000;50.698;13.322;2023-11-21T01:24:11;6.40;99.90
62904;DHT22;49000;50.698;13.322;2023-11-21T01:26:37;6.70;99.90
62904;DHT22;49000;50.698;13.322;2023-11-21T01:29:02;6.70;99.90
62904;DHT22;49000;50.698;13.322;2023-11-21T01:31:28;6.50;99.90
62904;DHT22;49000;50.698;13.322;2023-11-21T01:33:58;6.60;99.90
62904;DHT22;49000;50.698;13.322;2023-11-21T01:36:30;6.70;99.90
62904;DHT22;49000;50.698;13.322;2023-11-21T01:38:57;6.40;99.90
62904;DHT22;49000;50.698;13.322;2023-11-21T01:41:25;6.70;99.90
62904;DHT22;49000;50.698;13.322;2023-11-21T01:43:52;6.60;99.90
62904;DHT22;49000;50.698;13.322;2023-11-21T01:46:19;6.40;99.90
62904;DHT22;49000;50.698;13.322;2023-11-21T01:48:46;6.60;99.90
62904;DHT22;49000;50.698;13.322;2023-11-21T01:51:12;6.60;99.90
62904;DHT22;49000;50.698;13.322;2023-11-21T01:53:37;6.60;99.90
62904;DHT22;49000;50.698;13.322;2023-11-21T01:56:05;6.60;99.90
62904;DHT22;49000;50.698;13.322;2023-11-21T01:58:32;6.60;99.90
62904;DHT22;49000;50.698;13.322;2023-11-21T02:00:58;6.50;99.90
62904;DHT22;49000;50.698;13.322;2023-11-21T02:03:24;6.40;99.90
62904;DHT22;49000;50.698;13.322;2023-11-21T02:05:49;6.40;99.90
62904;DHT22;49000;50.698;13.322;2023-11-21T02:08:15;6.30;99.90
62904;DHT22;49000;50.698;13.322;2023-11-21T02:10:41;6.50;99.90
62904;DHT22;49000;50.698;13.322;2023-11-21T02:13:06;6.60;99.90
62904;DHT22;49000;50.698;13.322;2023-11-21T02:15:32;6.50;99.90
62904;DHT22;49000;50.698;13.322;2023-11-21T02:17:57;6.50;99.90
62904;DHT22;49000;50.698;13.322;2023-11-21T02:20:23;6.60;99.90
62904;DHT22;49000;50.698;13.322;2023-11-21T02:22:51;6.60;99.90
62904;DHT22;49000;50.698;13.322;2023-11-21T02:25:30;6.50;99.90
62904;DHT22;49000;50.698;13.322;2023-11-21T02:27:57;6.40;99.90
62904;DHT22;49000;50.698;13.322;2023-11-21T02:30:23;6.60;99.90
62904;DHT22;49000;50.698;13.322;2023-11-21T02:32:50;6.40;99.90
62904;DHT22;49000;50.698;13.322;2023-11-21T02:35:18;6.60;99.90
62904;DHT22;49000;50.698;13.322;2023-11-21T02:37:46;6.30;99.90
62904;DHT22;49000;50.698;13.322;2023-11-21T02:40:12;6.40;99.90
62904;DHT22;49000;50.698;13.322;2023-11-21T02:42:39;6.70;99.90
62904;DHT22;49000;50.698;13.322;2023-11-21T02:45:06;6.70;99.90
62904;DHT22;49000;50.698;13.322;2023-11-21T02:47:32;6.60;99.90
62904;DHT22;49000;50.698;13.322;2023-11-21T02:49:57;6.50;99.90
62904;DHT22;49000;50.698;13.322;2023-11-21T02:52:23;6.70;99.90
62904;DHT22;49000;50.698;13.322;2023-11-21T02:54:49;6.60;99.90
62904;DHT22;49000;50.698;13.322;2023-11-21T02:57:14;6.40;99.90
62904;DHT22;49000;50.698;13.322;2023-11-21T02:59:40;6.70;99.90
62904;DHT22;49000;50.698;13.322;2023-11-21T03:02:05;6.60;99.90
62904;DHT22;49000;50.698;13.322;2023-11-21T03:04:34;6.10;99.90
62904;DHT22;49000;50.698;13.322;2023-11-21T03:07:00;6.50;99.90
62904;DHT22;49000;50.698;13.322;2023-11-21T03:09:25;6.70;99.90
62904;DHT22;49000;50.698;13.322;2023-11-21T03:11:52;6.40;99.90
62904;DHT22;49000;50.698;13.322;2023-11-21T03:14:18;6.50;99.90
62904;DHT22;49000;50.698;13.322;2023-11-21T03:16:43;6.50;99.90
62904;DHT22;49000;50.698;13.322;2023-11-21T03:19:09;6.50;99.90
62904;DHT22;49000;50.698;13.322;2023-11-21T03:21:35;6.50;99.90
62904;DHT22;49000;50.698;13.322;2023-11-21T03:24:01;6.40;99.90
62904;DHT22;49000;50.698;13.322;2023-11-21T03:26:26;6.70;99.90
62904;DHT22;49000;50.698;13.322;2023-11-21T03:28:52;6.70;99.90
62904;DHT22;49000;50.698;13.322;2023-11-21T03:31:19;6.40;99.90
62904;DHT22;49000;50.698;13.322;2023-11-21T03:33:45;6.70;99.90
62904;DHT22;49000;50.698;13.322;2023-11-21T03:36:11;6.30;99.90
62904;DHT22;49000;50.698;13.322;2023-11-21T03:38:36;6.60;99.90
62904;DHT22;49000;50.698;13.322;2023-11-21T03:41:03;6.40;99.90
62904;DHT22;49000;50.698;13.322;2023-11-21T03:43:29;6.40;99.90
62904;DHT22;49000;50.698;13.322;2023-11-21T03:45:54;6.50;99.90
62904;DHT22;49000;50.698;13.322;2023-11-21T03:48:20;6.20;99.90
62904;DHT22;49000;50.698;13.322;2023-11-21T03:50:45;5.90;99.90
62904;DHT22;49000;50.698;13.322;2023-11-21T03:53:12;6.40;99.90
62904;DHT22;49000;50.698;13.322;2023-11-21T03:55:38;6.40;99.90
62904;DHT22;49000;50.698;13.322;2023-11-21T03:58:03;6.50;99.90
62904;DHT22;49000;50.698;13.322;2023-11-21T04:00:29;6.30;99.90
62904;DHT22;49000;50.698;13.322;2023-11-21T04:02:54;6.30;99.90
62904;DHT22;49000;50.698;13.322;2023-11-21T04:05:20;6.30;99.90
62904;DHT22;49000;50.698;13.322;2023-11-21T04:07:48;6.50;99.90
62904;DHT22;49000;50.698;13.322;2023-11-21T04:10:14;6.40;99.90
62904;DHT22;49000;50.698;13.322;2023-11-21T04:12:41;6.20;99.90
62904;DHT22;49000;50.698;13.322;2023-11-21T04:15:07;6.50;99.90
62904;DHT22;49000;50.698;13.322;2023-11-21T04:17:34;6.40;99.90
62904;DHT22;49000;50.698;13.322;2023-11-21T04:19:59;6.20;99.90
62904;DHT22;49000;50.698;13.322;2023-11-21T04:22:25;6.30;99.90
62904;DHT22;49000;50.698;13.322;2023-11-21T04:24:50;6.20;99.90
62904;DHT22;49000;50.698;13.322;2023-11-21T04:27:16;6.40;99.90
62904;DHT22;49000;50.698;13.322;2023-11-21T04:29:43;6.40;99.90
62904;DHT22;49000;50.698;13.322;2023-11-21T04:32:09;6.20;99.90
62904;DHT22;49000;50.698;13.322;2023-11-21T04:34:35;5.80;99.90
62904;DHT22;49000;50.698;13.322;2023-11-21T04:37:00;6.50;99.90
62904;DHT22;49000;50.698;13.322;2023-11-21T04:39:26;6.40;99.90
62904;DHT22;49000;50.698;13.322;2023-11-21T04:41:52;5.90;99.90
62904;DHT22;49000;50.698;13.322;2023-11-21T04:44:17;6.20;99.90
62904;DHT22;49000;50.698;13.322;2023-11-21T04:46:43;6.30;99.90
62904;DHT22;49000;50.698;13.322;2023-11-21T04:49:08;6.40;99.90
62904;DHT22;49000;50.698;13.322;2023-11-21T04:51:36;6.50;99.90
62904;DHT22;49000;50.698;13.322;2023-11-21T04:54:01;6.50;99.90
62904;DHT22;49000;50.698;13.322;2023-11-21T04:56:27;6.60;99.90
62904;DHT22;49000;50.698;13.322;2023-11-21T04:58:54;6.50;99.90
62904;DHT22;49000;50.698;13.322;2023-11-21T05:01:20;6.40;99.90
62904;DHT22;49000;50.698;13.322;2023-11-21T05:03:46;6.50;99.90
62904;DHT22;49000;50.698;13.322;2023-11-21T05:06:12;6.60;99.90
62904;DHT22;49000;50.698;13.322;2023-11-21T05:08:39;6.60;99.90
62904;DHT22;49000;50.698;13.322;2023-11-21T05:11:05;6.40;99.90
62904;DHT22;49000;50.698;13.322;2023-11-21T05:13:34;6.50;99.90
62904;DHT22;49000;50.698;13.322;2023-11-21T05:15:59;6.30;99.90
62904;DHT22;49000;50.698;13.322;2023-11-21T05:18:25;6.30;99.90
62904;DHT22;49000;50.698;13.322;2023-11-21T05:20:55;6.20;99.90
62904;DHT22;49000;50.698;13.322;2023-11-21T05:23:21;6.20;99.90
62904;DHT22;49000;50.698;13.322;2023-11-21T05:25:46;6.30;99.90
62904;DHT22;49000;50.698;13.322;2023-11-21T05:28:12;6.30;99.90
62904;DHT22;49000;50.698;13.322;2023-11-21T05:30:37;6.10;99.90
62904;DHT22;49000;50.698;13.322;2023-11-21T05:33:05;6.10;99.90
62904;DHT22;49000;50.698;13.322;2023-11-21T05:35:30;6.20;99.90
62904;DHT22;49000;50.698;13.322;2023-11-21T05:37:56;6.30;99.90
62904;DHT22;49000;50.698;13.322;2023-11-21T05:40:22;6.20;99.90
62904;DHT22;49000;50.698;13.322;2023-11-21T05:42:48;5.60;99.90
62904;DHT22;49000;50.698;13.322;2023-11-21T05:45:14;6.20;99.90
62904;DHT22;49000;50.698;13.322;2023-11-21T05:47:45;6.20;99.90
62904;DHT22;49000;50.698;13.322;2023-11-21T05:50:13;6.30;99.90
62904;DHT22;49000;50.698;13.322;2023-11-21T05:52:40;5.90;99.90
62904;DHT22;49000;50.698;13.322;2023-11-21T05:55:06;6.20;99.90
62904;DHT22;49000;50.698;13.322;2023-11-21T05:57:39;6.10;99.90
62904;DHT22;49000;50.698;13.322;2023-11-21T06:00:05;6.20;99.90
62904;DHT22;49000;50.698;13.322;2023-11-21T06:02:39;6.00;99.90
62904;DHT22;49000;50.698;13.322;2023-11-21T06:05:07;6.10;99.90
62904;DHT22;49000;50.698;13.322;2023-11-21T06:07:32;6.30;99.90
62904;DHT22;49000;50.698;13.322;2023-11-21T06:09:58;6.10;99.90
62904;DHT22;49000;50.698;13.322;2023-11-21T06:12:23;5.70;99.90
62904;DHT22;49000;50.698;13.322;2023-11-21T06:14:49;5.90;99.90
62904;DHT22;49000;50.698;13.322;2023-11-21T06:17:14;6.30;99.90
62904;DHT22;49000;50.698;13.322;2023-11-21T06:19:40;6.00;99.90
62904;DHT22;49000;50.698;13.322;2023-11-21T06:22:05;6.00;99.90
62904;DHT22;49000;50.698;13.322;2023-11-21T06:24:31;6.10;99.90
62904;DHT22;49000;50.698;13.322;2023-11-21T06:26:57;6.20;99.90
62904;DHT22;49000;50.698;13.322;2023-11-21T06:29:22;6.20;99.90
62904;DHT22;49000;50.698;13.322;2023-11-21T06:31:48;6.10;99.90
62904;DHT22;49000;50.698;13.322;2023-11-21T06:34:14;6.30;99.90
62904;DHT22;49000;50.698;13.322;2023-11-21T06:36:40;5.60;99.90
62904;DHT22;49000;50.698;13.322;2023-11-21T06:39:05;6.20;99.90
62904;DHT22;49000;50.698;13.322;2023-11-21T06:41:33;5.90;99.90
62904;DHT22;49000;50.698;13.322;2023-11-21T06:43:59;5.70;99.90
62904;DHT22;49000;50.698;13.322;2023-11-21T06:46:24;6.20;99.90
62904;DHT22;49000;50.698;13.322;2023-11-21T06:48:50;6.00;99.90
62904;DHT22;49000;50.698;13.322;2023-11-21T06:51:15;6.10;99.90
62904;DHT22;49000;50.698;13.322;2023-11-21T06:53:41;6.00;99.90
62904;DHT22;49000;50.698;13.322;2023-11-21T06:56:19;5.90;99.90
62904;DHT22;49000;50.698;13.322;2023-11-21T06:58:45;6.30;99.90
62904;DHT22;49000;50.698;13.322;2023-11-21T07:01:12;6.10;99.90
62904;DHT22;49000;50.698;13.322;2023-11-21T07:03:38;6.30;99.90
62904;DHT22;49000;50.698;13.322;2023-11-21T07:06:04;6.20;99.90
62904;DHT22;49000;50.698;13.322;2023-11-21T07:08:30;6.00;99.90
62904;DHT22;49000;50.698;13.322;2023-11-21T07:10:55;6.10;99.90
62904;DHT22;49000;50.698;13.322;2023-11-21T07:13:21;6.10;99.90
62904;DHT22;49000;50.698;13.322;2023-11-21T07:15:47;6.20;99.90
62904;DHT22;49000;50.698;13.322;2023-11-21T07:18:13;6.10;99.90
62904;DHT22;49000;50.698;13.322;2023-11-21T07:20:39;6.40;99.90
62904;DHT22;49000;50.698;13.322;2023-11-21T07:23:04;6.20;99.90
62904;DHT22;49000;50.698;13.322;2023-11-21T07:25:31;6.40;99.90
62904;DHT22;49000;50.698;13.322;2023-11-21T07:27:57;6.10;99.90
62904;DHT22;49000;50.698;13.322;2023-11-21T07:30:22;6.30;99.90
62904;DHT22;49000;50.698;13.322;2023-11-21T07:32:48;6.30;99.90
62904;DHT22;49000;50.698;13.322;2023-11-21T07:35:14;6.50;99.90
62904;DHT22;49000;50.698;13.322;2023-11-21T07:37:40;6.20;99.90
62904;DHT22;49000;50.698;13.322;2023-11-21T07:40:06;6.40;99.90
62904;DHT22;49000;50.698;13.322;2023-11-21T07:42:34;6.40;99.90
62904;DHT22;49000;50.698;13.322;2023-11-21T07:44:59;6.30;99.90
62904;DHT22;49000;50.698;13.322;2023-11-21T07:47:25;6.10;99.90
62904;DHT22;49000;50.698;13.322;2023-11-21T07:49:53;6.00;99.90
62904;DHT22;49000;50.698;13.322;2023-11-21T07:52:18;6.70;99.90
62904;DHT22;49000;50.698;13.322;2023-11-21T07:54:46;6.70;99.90
62904;DHT22;49000;50.698;13.322;2023-11-21T07:57:12;6.50;99.90
62904;DHT22;49000;50.698;13.322;2023-11-21T07:59:41;6.20;99.90
62904;DHT22;49000;50.698;13.322;2023-11-21T08:02:07;6.50;99.90
62904;DHT22;49000;50.698;13.322;2023-11-21T08:04:33;6.80;99.90
62904;DHT22;49000;50.698;13.322;2023-11-21T08:06:59;6.80;99.90
62904;DHT22;49000;50.698;13.322;2023-11-21T08:09:24;6.50;99.90
62904;DHT22;49000;50.698;13.322;2023-11-21T08:11:51;6.70;99.90
62904;DHT22;49000;50.698;13.322;2023-11-21T08:14:17;6.40;99.90
62904;DHT22;49000;50.698;13.322;2023-11-21T08:16:42;6.80;99.90
62904;DHT22;49000;50.698;13.322;2023-11-21T08:19:10;6.60;99.90
62904;DHT22;49000;50.698;13.322;2023-11-21T08:21:36;6.60;99.90
62904;DHT22;49000;50.698;13.322;2023-11-21T08:24:03;6.40;99.90
62904;DHT22;49000;50.698;13.322;2023-11-21T08:26:29;6.90;99.90
62904;DHT22;49000;50.698;13.322;2023-11-21T08:28:55;6.60;99.90
62904;DHT22;49000;50.698;13.322;2023-11-21T08:31:26;6.70;99.90
62904;DHT22;49000;50.698;13.322;2023-11-21T08:33:52;6.80;99.90
62904;DHT22;49000;50.698;13.322;2023-11-21T08:36:20;6.40;99.90
62904;DHT22;49000;50.698;13.322;2023-11-21T08:38:46;6.50;99.90
62904;DHT22;49000;50.698;13.322;2023-11-21T08:41:11;6.60;99.90
62904;DHT22;49000;50.698;13.322;2023-11-21T08:43:37;6.60;99.90
62904;DHT22;49000;50.698;13.322;2023-11-21T08:46:05;6.00;99.90
62904;DHT22;49000;50.698;13.322;2023-11-21T08:48:31;6.40;99.90
62904;DHT22;49000;50.698;13.322;2023-11-21T08:50:58;6.50;99.90
62904;DHT22;49000;50.698;13.322;2023-11-21T08:53:23;6.30;99.90
62904;DHT22;49000;50.698;13.322;2023-11-21T08:55:48;6.40;99.90
62904;DHT22;49000;50.698;13.322;2023-11-21T08:58:15;6.40;99.90
62904;DHT22;49000;50.698;13.322;2023-11-21T09:00:41;6.20;99.90
62904;DHT22;49000;50.698;13.322;2023-11-21T09:03:06;6.00;99.90
62904;DHT22;49000;50.698;13.322;2023-11-21T09:05:37;6.50;99.90
62904;DHT22;49000;50.698;13.322;2023-11-21T09:08:03;6.20;99.90
62904;DHT22;49000;50.698;13.322;2023-11-21T09:10:29;6.40;99.90
62904;DHT22;49000;50.698;13.322;2023-11-21T09:12:54;6.20;99.90
62904;DHT22;49000;50.698;13.322;2023-11-21T09:15:19;6.60;99.90
62904;DHT22;49000;50.698;13.322;2023-11-21T09:17:45;6.60;99.90
62904;DHT22;49000;50.698;13.322;2023-11-21T09:20:11;6.60;99.90
62904;DHT22;49000;50.698;13.322;2023-11-21T09:22:37;6.60;99.90
62904;DHT22;49000;50.698;13.322;2023-11-21T09:25:02;6.30;99.90
62904;DHT22;49000;50.698;13.322;2023-11-21T09:27:31;6.40;99.90
62904;DHT22;49000;50.698;13.322;2023-11-21T09:29:57;6.50;99.90
62904;DHT22;49000;50.698;13.322;2023-11-21T09:32:23;5.90;99.90
62904;DHT22;49000;50.698;13.322;2023-11-21T09:34:49;6.30;99.90
62904;DHT22;49000;50.698;13.322;2023-11-21T09:37:15;6.50;99.90
62904;DHT22;49000;50.698;13.322;2023-11-21T09:39:41;6.30;99.90
62904;DHT22;49000;50.698;13.322;2023-11-21T09:44:50;6.00;99.90
62904;DHT22;49000;50.698;13.322;2023-11-21T09:47:22;6.30;99.90
62904;DHT22;49000;50.698;13.322;2023-11-21T09:49:48;6.30;99.90
62904;DHT22;49000;50.698;13.322;2023-11-21T09:52:27;6.00;99.90
62904;DHT22;49000;50.698;13.322;2023-11-21T09:54:53;6.10;99.90
62904;DHT22;49000;50.698;13.322;2023-11-21T09:57:20;6.50;99.90
62904;DHT22;49000;50.698;13.322;2023-11-21T09:59:53;6.50;99.90
62904;DHT22;49000;50.698;13.322;2023-11-21T10:02:26;6.20;99.90
62904;DHT22;49000;50.698;13.322;2023-11-21T10:04:53;6.30;99.90
62904;DHT22;49000;50.698;13.322;2023-11-21T10:07:20;6.20;99.90
62904;DHT22;49000;50.698;13.322;2023-11-21T10:09:47;6.30;99.90
62904;DHT22;49000;50.698;13.322;2023-11-21T10:12:15;6.30;99.90
62904;DHT22;49000;50.698;13.322;2023-11-21T10:14:41;6.20;99.90
62904;DHT22;49000;50.698;13.322;2023-11-21T10:17:10;6.20;99.90
62904;DHT22;49000;50.698;13.322;2023-11-21T10:19:38;6.30;99.90
62904;DHT22;49000;50.698;13.322;2023-11-21T10:22:05;6.30;99.90
62904;DHT22;49000;50.698;13.322;2023-11-21T10:24:32;6.30;99.90
62904;DHT22;49000;50.698;13.322;2023-11-21T10:26:58;6.60;99.90
62904;DHT22;49000;50.698;13.322;2023-11-21T10:29:23;6.50;99.90
62904;DHT22;49000;50.698;13.322;2023-11-21T10:31:50;6.30;99.90
62904;DHT22;49000;50.698;13.322;2023-11-21T10:34:19;6.50;99.90
62904;DHT22;49000;50.698;13.322;2023-11-21T10:36:45;6.70;99.90
62904;DHT22;49000;50.698;13.322;2023-11-21T10:39:14;6.70;99.90
62904;DHT22;49000;50.698;13.322;2023-11-21T10:41:44;6.70;99.90
62904;DHT22;49000;50.698;13.322;2023-11-21T10:44:11;6.70;99.90
62904;DHT22;49000;50.698;13.322;2023-11-21T10:46:36;6.40;99.90
62904;DHT22;49000;50.698;13.322;2023-11-21T10:49:04;6.80;99.90
62904;DHT22;49000;50.698;13.322;2023-11-21T10:51:29;6.60;99.90
62904;DHT22;49000;50.698;13.322;2023-11-21T10:53:55;6.80;99.90
62904;DHT22;49000;50.698;13.322;2023-11-21T10:56:23;6.70;99.90
62904;DHT22;49000;50.698;13.322;2023-11-21T10:58:50;6.80;99.90
62904;DHT22;49000;50.698;13.322;2023-11-21T11:01:18;6.90;99.90
62904;DHT22;49000;50.698;13.322;2023-11-21T11:03:46;6.90;99.90
62904;DHT22;49000;50.698;13.322;2023-11-21T11:06:13;7.00;99.90
62904;DHT22;49000;50.698;13.322;2023-11-21T11:08:40;6.90;99.90
62904;DHT22;49000;50.698;13.322;2023-11-21T11:11:07;6.70;99.90
62904;DHT22;49000;50.698;13.322;2023-11-21T11:13:32;7.10;99.90
62904;DHT22;49000;50.698;13.322;2023-11-21T11:16:00;7.30;99.90
62904;DHT22;49000;50.698;13.322;2023-11-21T11:18:27;7.00;99.90
62904;DHT22;49000;50.698;13.322;2023-11-21T11:21:05;6.80;99.90
62904;DHT22;49000;50.698;13.322;2023-11-21T11:23:49;6.40;99.90
62904;DHT22;49000;50.698;13.322;2023-11-21T11:26:24;6.80;99.90
62904;DHT22;49000;50.698;13.322;2023-11-21T11:29:18;6.40;99.90
62904;DHT22;49000;50.698;13.322;2023-11-21T11:32:00;6.70;99.90
62904;DHT22;49000;50.698;13.322;2023-11-21T11:34:33;7.00;99.90
62904;DHT22;49000;50.698;13.322;2023-11-21T11:37:02;6.90;99.90
62904;DHT22;49000;50.698;13.322;2023-11-21T11:42:03;6.40;99.90
62904;DHT22;49000;50.698;13.322;2023-11-21T11:47:15;6.90;99.90
62904;DHT22;49000;50.698;13.322;2023-11-21T11:52:48;6.60;99.90
62904;DHT22;49000;50.698;13.322;2023-11-21T11:55:15;6.50;99.90
62904;DHT22;49000;50.698;13.322;2023-11-21T11:57:45;6.60;99.90
62904;DHT22;49000;50.698;13.322;2023-11-21T12:00:17;6.10;99.90
62904;DHT22;49000;50.698;13.322;2023-11-21T12:02:48;6.10;99.90
62904;DHT22;49000;50.698;13.322;2023-11-21T12:05:18;6.20;99.90
62904;DHT22;49000;50.698;13.322;2023-11-21T12:10:17;6.00;99.90
62904;DHT22;49000;50.698;13.322;2023-11-21T12:12:49;6.70;99.90
62904;DHT22;49000;50.698;13.322;2023-11-21T12:15:15;6.80;99.90
62904;DHT22;49000;50.698;13.322;2023-11-21T12:17:42;6.50;99.90
62904;DHT22;49000;50.698;13.322;2023-11-21T12:20:09;6.60;99.90
62904;DHT22;49000;50.698;13.322;2023-11-21T12:22:44;6.50;99.90
62904;DHT22;49000;50.698;13.322;2023-11-21T12:25:13;6.20;99.90
62904;DHT22;49000;50.698;13.322;2023-11-21T12:27:48;6.10;99.90
62904;DHT22;49000;50.698;13.322;2023-11-21T12:30:15;6.00;99.90
62904;DHT22;49000;50.698;13.322;2023-11-21T12:32:48;6.30;99.90
62904;DHT22;49000;50.698;13.322;2023-11-21T12:35:14;6.20;99.90
62904;DHT22;49000;50.698;13.322;2023-11-21T12:37:41;5.90;99.90
62904;DHT22;49000;50.698;13.322;2023-11-21T12:40:10;6.30;99.90
62904;DHT22;49000;50.698;13.322;2023-11-21T12:42:45;5.90;99.90
62904;DHT22;49000;50.698;13.322;2023-11-21T12:47:48;5.90;99.90
62904;DHT22;49000;50.698;13.322;2023-11-21T12:50:23;5.60;99.90
62904;DHT22;49000;50.698;13.322;2023-11-21T12:52:52;5.80;99.90
62904;DHT22;49000;50.698;13.322;2023-11-21T12:55:19;5.60;99.90
62904;DHT22;49000;50.698;13.322;2023-11-21T12:57:49;5.70;99.90
62904;DHT22;49000;50.698;13.322;2023-11-21T13:00:18;5.40;99.90
62904;DHT22;49000;50.698;13.322;2023-11-21T13:02:57;5.80;99.90
62904;DHT22;49000;50.698;13.322;2023-11-21T13:05:32;5.90;99.90
62904;DHT22;49000;50.698;13.322;2023-11-21T13:07:59;5.70;99.90
62904;DHT22;49000;50.698;13.322;2023-11-21T13:10:28;5.90;99.90
62904;DHT22;49000;50.698;13.322;2023-11-21T13:12:57;5.80;99.90
62904;DHT22;49000;50.698;13.322;2023-11-21T13:15:24;5.70;99.90
62904;DHT22;49000;50.698;13.322;2023-11-21T13:17:50;5.60;99.90
62904;DHT22;49000;50.698;13.322;2023-11-21T13:20:16;5.70;99.90
62904;DHT22;49000;50.698;13.322;2023-11-21T13:22:53;5.80;99.90
62904;DHT22;49000;50.698;13.322;2023-11-21T13:25:27;5.80;99.90
62904;DHT22;49000;50.698;13.322;2023-11-21T13:27:55;5.90;99.90
62904;DHT22;49000;50.698;13.322;2023-11-21T13:30:22;5.70;99.90
62904;DHT22;49000;50.698;13.322;2023-11-21T13:32:55;5.20;99.90
62904;DHT22;49000;50.698;13.322;2023-11-21T13:35:26;5.80;99.90
62904;DHT22;49000;50.698;13.322;2023-11-21T13:38:05;5.70;99.90
62904;DHT22;49000;50.698;13.322;2023-11-21T13:40:32;5.50;99.90
62904;DHT22;49000;50.698;13.322;2023-11-21T13:43:00;5.60;99.90
62904;DHT22;49000;50.698;13.322;2023-11-21T13:45:29;5.60;99.90
62904;DHT22;49000;50.698;13.322;2023-11-21T13:47:56;5.30;99.90
62904;DHT22;49000;50.698;13.322;2023-11-21T13:50:25;5.00;99.90
62904;DHT22;49000;50.698;13.322;2023-11-21T13:52:58;5.30;99.90
62904;DHT22;49000;50.698;13.322;2023-11-21T13:55:28;5.00;99.90
62904;DHT22;49000;50.698;13.322;2023-11-21T13:57:54;5.10;99.90
62904;DHT22;49000;50.698;13.322;2023-11-21T14:00:19;5.00;99.90
62904;DHT22;49000;50.698;13.322;2023-11-21T14:03:03;4.50;99.90
62904;DHT22;49000;50.698;13.322;2023-11-21T14:05:33;4.40;99.90
62904;DHT22;49000;50.698;13.322;2023-11-21T14:07:59;4.30;99.90
62904;DHT22;49000;50.698;13.322;2023-11-21T14:10:30;5.00;99.90
62904;DHT22;49000;50.698;13.322;2023-11-21T14:13:11;4.90;99.90
62904;DHT22;49000;50.698;13.322;2023-11-21T14:15:39;4.90;99.90
62904;DHT22;49000;50.698;13.322;2023-11-21T14:18:07;4.70;99.90
62904;DHT22;49000;50.698;13.322;2023-11-21T14:20:36;4.90;99.90
62904;DHT22;49000;50.698;13.322;2023-11-21T14:23:03;4.90;99.90
62904;DHT22;49000;50.698;13.322;2023-11-21T14:25:31;5.20;99.90
62904;DHT22;49000;50.698;13.322;2023-11-21T14:27:57;4.60;99.90
62904;DHT22;49000;50.698;13.322;2023-11-21T14:30:23;5.10;99.90
62904;DHT22;49000;50.698;13.322;2023-11-21T14:32:48;5.00;99.90
62904;DHT22;49000;50.698;13.322;2023-11-21T14:35:15;5.00;99.90
62904;DHT22;49000;50.698;13.322;2023-11-21T14:37:42;5.10;99.90
62904;DHT22;49000;50.698;13.322;2023-11-21T14:40:08;4.60;99.90
62904;DHT22;49000;50.698;13.322;2023-11-21T14:42:34;4.80;99.90
62904;DHT22;49000;50.698;13.322;2023-11-21T14:45:01;4.40;99.90
62904;DHT22;49000;50.698;13.322;2023-11-21T14:47:31;4.60;99.90
62904;DHT22;49000;50.698;13.322;2023-11-21T14:49:57;4.60;99.90
62904;DHT22;49000;50.698;13.322;2023-11-21T14:52:25;4.70;99.90
62904;DHT22;49000;50.698;13.322;2023-11-21T14:55:03;4.10;99.90
62904;DHT22;49000;50.698;13.322;2023-11-21T14:57:47;4.40;99.90
62904;DHT22;49000;50.698;13.322;2023-11-21T15:00:19;4.40;99.90
62904;DHT22;49000;50.698;13.322;2023-11-21T15:03:07;4.10;99.90
62904;DHT22;49000;50.698;13.322;2023-11-21T15:05:34;4.50;99.90
62904;DHT22;49000;50.698;13.322;2023-11-21T15:08:01;4.40;99.90
62904;DHT22;49000;50.698;13.322;2023-11-21T15:10:47;4.10;99.90
62904;DHT22;49000;50.698;13.322;2023-11-21T15:13:15;3.90;99.90
62904;DHT22;49000;50.698;13.322;2023-11-21T15:15:42;4.10;99.90
62904;DHT22;49000;50.698;13.322;2023-11-21T15:18:08;4.20;99.90
62904;DHT22;49000;50.698;13.322;2023-11-21T15:20:37;4.20;99.90
62904;DHT22;49000;50.698;13.322;2023-11-21T15:23:03;4.10;99.90
62904;DHT22;49000;50.698;13.322;2023-11-21T15:25:30;3.90;99.90
62904;DHT22;49000;50.698;13.322;2023-11-21T15:27:55;3.90;99.90
62904;DHT22;49000;50.698;13.322;2023-11-21T15:30:21;3.80;99.90
62904;DHT22;49000;50.698;13.322;2023-11-21T15:32:50;3.70;99.90
62904;DHT22;49000;50.698;13.322;2023-11-21T15:35:16;3.80;99.90
62904;DHT22;49000;50.698;13.322;2023-11-21T15:37:41;3.10;99.90
62904;DHT22;49000;50.698;13.322;2023-11-21T15:40:08;3.50;99.90
62904;DHT22;49000;50.698;13.322;2023-11-21T15:42:34;3.80;99.90
62904;DHT22;49000;50.698;13.322;2023-11-21T15:45:04;3.60;99.90
62904;DHT22;49000;50.698;13.322;2023-11-21T15:47:32;3.40;99.90